Airfield :
LOGIN :

Register | Disclaimer

   EN    FR    IT 

 










Legend :    VFR   Marginal VFR   IFR   Intensive IFR   Very Intensive IFR
Visi :
Ceiling :
>= 8 km
>= 3000ft
5 to 8 km
1000 to 3000 ft
1500m to 5 km
500 to 1000 ft
800 to 1500m
200 to 500 ft
< 800m
< 200 ft
Symbols :   Thunderstorms  Fog  Heavy snow  Heavy precipitations  Wind > 20 kt
SIGMETs :     Misc.  Thunderstorms  Icing  Turbulence  Mountain Waves  Volcanic Ashes







- Airport Elevation : 600 ft
- IATA code : VIE


LOWW - Vienna Schwechat

CURRENT METAR :
  • 192250Z 30004KT 9999 FEW050 BKN070 08/01 Q1019 NOSIG

EXPIRED METARs :
  • 192220Z 30004KT 250V320 CAVOK 08/00 Q1019 NOSIG
  • 192150Z 29006KT 260V330 CAVOK 09/00 Q1019 NOSIG
  • 192120Z 27009KT CAVOK 09/00 Q1019 NOSIG
  • 192050Z 30005KT CAVOK 08/M00 Q1019 NOSIG
  • 192020Z 25006KT CAVOK 09/M00 Q1019 NOSIG

TAF TAF LOWW
Valid from the 19 at 21:00 until the 21 at 03:00 UTC


192015Z 1921/2103 24005KT CAVOK TX11/2013Z TN02/2102Z
TEMPO 1922/2004 28010KT 9999 BKN050
BECMG 2006/2008 31012KT
BECMG 2017/2019 24004KT
No reported NOTAMs for that airfield.



MET'MAP, your aeronautical weather chart ! - Copyright ORBIFLY December 2007 - Disclaimer

ORBIFLY MET'MAP TEAM :

Programming & Development : Alexandra Zaïnal
Concept & Development : Baudouin d'Aumeries
Co-Development & Prog : Marc-Olivier Méhu
Technical & hardware support : Manuel Goepfert

Contact : metmap@orbifly.com




SOURCES & CREDITS :

   NOAA